Terminal Aerodrome Forecast
Issued by NWS

Home | Current Version | Previous Version | Text Only | Print | Product List | Glossary On
Versions: 1 2 3 4 5 6 7 8 9 10 11 12 13 14 15 16
974
FTUS46 KMTR 262345
TAFSTS
TAF
KSTS 262345Z 2700/2724 19010KT P6SM FEW060
     FM270300 17005KT P6SM SKC
     FM270800 VRB03KT P6SM FEW004
     FM271900 32008KT P6SM SKC=

USA.gov is the U.S. government's official web portal to all federal, state and local government web resources and services.